Time;durP1;ratioP1;P1;durP2;ratioP2;P2;SDS_P1;SDS_P2;PMS_P1;PMS_P2;Temp;Humidity;BMP_temperature;BMP_pressure;BME280_temperature;BME280_humidity;BME280_pressure;Samples;Min_cycle;Max_cycle;Signal;HPM_P1;HPM_P2
2022/05/01 00:01:04;;;;;;;;;;;4.90;99.90;;;;;;5031628;28;20268;-69
2022/05/01 00:03:36;;;;;;;;;;;5.10;99.90;;;;;;5015006;28;20225;-69
2022/05/01 00:06:04;;;;;;;;;;;4.90;99.90;;;;;;5023276;28;19960;-69
2022/05/01 00:08:30;;;;;;;;;;;4.90;99.90;;;;;;4997829;28;19976;-68
2022/05/01 00:10:56;;;;;;;;;;;4.80;99.90;;;;;;5000550;28;19929;-69
2022/05/01 00:13:22;;;;;;;;;;;4.80;99.90;;;;;;5012527;28;19932;-68
2022/05/01 00:15:48;;;;;;;;;;;4.80;99.90;;;;;;4997943;28;20016;-68
2022/05/01 00:18:14;;;;;;;;;;;4.80;99.90;;;;;;5013997;28;19979;-69
2022/05/01 00:20:39;;;;;;;;;;;4.70;99.90;;;;;;5014547;28;19936;-69
2022/05/01 00:23:05;;;;;;;;;;;5.00;99.90;;;;;;5014770;28;20383;-67
2022/05/01 00:25:31;;;;;;;;;;;4.70;99.90;;;;;;5013049;28;20291;-69
2022/05/01 00:27:57;;;;;;;;;;;4.70;99.90;;;;;;5013856;28;20008;-68
2022/05/01 00:30:22;;;;;;;;;;;4.70;99.90;;;;;;5014956;28;19973;-68
2022/05/01 00:38:16;;;;;;;;;;;6.00;99.90;;;;;;5015546;28;19967;-68
2022/05/01 00:40:42;;;;;;;;;;;4.60;99.90;;;;;;5014245;28;20016;-69
2022/05/01 00:43:08;;;;;;;;;;;4.60;99.90;;;;;;5015828;28;21051;-69
2022/05/01 00:45:33;;;;;;;;;;;4.60;99.90;;;;;;5015992;28;19928;-68
2022/05/01 00:47:59;;;;;;;;;;;4.60;99.90;;;;;;5030348;28;20001;-69
2022/05/01 00:50:25;;;;;;;;;;;4.60;99.90;;;;;;4998087;28;20311;-69
2022/05/01 00:52:54;;;;;;;;;;;4.60;99.90;;;;;;5014395;28;19921;-68
2022/05/01 00:55:19;;;;;;;;;;;4.60;99.90;;;;;;5010309;28;19929;-68
2022/05/01 00:57:45;;;;;;;;;;;4.60;99.90;;;;;;5004660;28;19921;-69
2022/05/01 01:00:11;;;;;;;;;;;4.60;99.90;;;;;;5013867;28;19935;-69
2022/05/01 01:02:37;;;;;;;;;;;4.50;99.90;;;;;;5015939;28;19928;-68
2022/05/01 01:05:03;;;;;;;;;;;4.50;99.90;;;;;;5015559;28;19984;-69
2022/05/01 01:07:29;;;;;;;;;;;4.50;99.90;;;;;;5015807;28;19971;-69
2022/05/01 01:09:54;;;;;;;;;;;4.50;99.90;;;;;;5014381;28;19921;-69
2022/05/01 01:15:08;;;;;;;;;;;4.50;99.90;;;;;;5015160;28;19965;-68
2022/05/01 01:17:38;;;;;;;;;;;4.50;99.90;;;;;;5014355;28;19921;-69
2022/05/01 01:20:15;;;;;;;;;;;4.40;99.90;;;;;;5013751;28;19928;-68
2022/05/01 01:22:41;;;;;;;;;;;4.40;99.90;;;;;;5014796;28;19922;-68
2022/05/01 01:25:10;;;;;;;;;;;4.40;99.90;;;;;;5008975;28;19945;-68
2022/05/01 01:27:39;;;;;;;;;;;4.40;99.90;;;;;;4995980;28;19930;-68
2022/05/01 01:32:54;;;;;;;;;;;4.30;99.90;;;;;;5000731;28;20014;-69
2022/05/01 01:35:22;;;;;;;;;;;4.30;99.90;;;;;;5013990;28;20023;-68
2022/05/01 01:37:48;;;;;;;;;;;4.30;99.90;;;;;;5008366;28;19929;-70
2022/05/01 01:40:17;;;;;;;;;;;4.40;99.90;;;;;;5015117;28;19921;-69
2022/05/01 01:42:47;;;;;;;;;;;4.20;99.90;;;;;;5014865;28;19929;-68
2022/05/01 01:45:13;;;;;;;;;;;4.20;99.90;;;;;;5028684;28;19944;-69
2022/05/01 01:47:38;;;;;;;;;;;4.50;99.90;;;;;;5014390;28;20366;-68
2022/05/01 01:50:05;;;;;;;;;;;4.20;99.90;;;;;;5011250;28;20004;-68
2022/05/01 01:52:33;;;;;;;;;;;4.20;99.90;;;;;;5014548;28;20322;-68
2022/05/01 01:55:02;;;;;;;;;;;4.10;99.90;;;;;;5013490;28;20654;-70
2022/05/01 01:57:29;;;;;;;;;;;4.10;99.90;;;;;;5014920;28;19972;-68
2022/05/01 01:59:54;;;;;;;;;;;4.10;99.90;;;;;;5007333;28;19965;-69
2022/05/01 02:02:20;;;;;;;;;;;4.10;99.90;;;;;;5015684;28;20008;-69
2022/05/01 02:04:45;;;;;;;;;;;4.10;99.90;;;;;;5017540;28;19921;-69
2022/05/01 02:07:11;;;;;;;;;;;4.00;99.90;;;;;;5018740;28;19967;-68
2022/05/01 02:09:38;;;;;;;;;;;4.40;99.90;;;;;;5017789;28;19990;-68
2022/05/01 02:12:08;;;;;;;;;;;4.00;99.90;;;;;;5016869;28;20017;-68
2022/05/01 02:14:34;;;;;;;;;;;4.00;99.90;;;;;;5017368;28;19944;-69
2022/05/01 02:16:59;;;;;;;;;;;3.90;99.90;;;;;;5017089;28;19921;-68
2022/05/01 02:19:25;;;;;;;;;;;4.20;99.90;;;;;;5017592;28;19927;-68
2022/05/01 02:21:51;;;;;;;;;;;3.90;99.90;;;;;;5016396;28;19933;-68
2022/05/01 02:24:17;;;;;;;;;;;3.90;99.90;;;;;;5015932;28;20071;-69
2022/05/01 02:26:42;;;;;;;;;;;3.90;99.90;;;;;;5015235;28;19925;-69
2022/05/01 02:29:09;;;;;;;;;;;3.80;99.90;;;;;;5003775;28;19922;-68
2022/05/01 02:31:39;;;;;;;;;;;3.80;99.90;;;;;;5012698;28;20020;-69
2022/05/01 02:34:05;;;;;;;;;;;3.80;99.90;;;;;;4995784;28;19922;-70
2022/05/01 02:36:30;;;;;;;;;;;4.10;99.90;;;;;;5011597;28;19925;-69
2022/05/01 02:38:56;;;;;;;;;;;3.80;99.90;;;;;;5013377;28;19921;-69
2022/05/01 02:41:22;;;;;;;;;;;3.70;99.90;;;;;;5014442;28;19948;-69
2022/05/01 02:43:50;;;;;;;;;;;3.80;99.90;;;;;;4991744;28;20052;-70
2022/05/01 02:46:16;;;;;;;;;;;3.70;99.90;;;;;;5018118;28;19965;-68
2022/05/01 02:48:43;;;;;;;;;;;3.70;99.90;;;;;;5012894;28;19945;-68
2022/05/01 02:51:09;;;;;;;;;;;3.70;99.90;;;;;;5013105;28;19922;-69
2022/05/01 02:53:35;;;;;;;;;;;3.70;99.90;;;;;;5012552;28;19976;-69
2022/05/01 02:56:00;;;;;;;;;;;3.80;99.90;;;;;;5011782;28;19921;-68
2022/05/01 02:58:35;;;;;;;;;;;3.90;99.90;;;;;;5012431;28;19921;-69
2022/05/01 03:01:01;;;;;;;;;;;3.60;99.90;;;;;;5000824;28;20287;-68
2022/05/01 03:03:27;;;;;;;;;;;3.60;99.90;;;;;;5012031;28;19921;-69
2022/05/01 03:05:53;;;;;;;;;;;3.60;99.90;;;;;;5012548;28;19921;-69
2022/05/01 03:08:19;;;;;;;;;;;3.60;99.90;;;;;;5011970;28;19944;-68
2022/05/01 03:10:45;;;;;;;;;;;3.50;99.90;;;;;;5011870;28;20287;-70
2022/05/01 03:13:11;;;;;;;;;;;3.50;99.90;;;;;;5012238;28;19940;-69
2022/05/01 03:15:36;;;;;;;;;;;3.50;99.90;;;;;;5011799;28;19921;-69
2022/05/01 03:23:30;;;;;;;;;;;3.40;99.90;;;;;;5014680;28;20004;-69
2022/05/01 03:25:57;;;;;;;;;;;3.40;99.90;;;;;;5015623;28;20292;-70
2022/05/01 03:28:23;;;;;;;;;;;3.40;99.90;;;;;;5007340;28;19973;-70
2022/05/01 03:30:49;;;;;;;;;;;3.40;99.90;;;;;;5011197;28;19921;-70
2022/05/01 03:33:16;;;;;;;;;;;3.40;99.90;;;;;;5010557;28;19951;-69
2022/05/01 03:35:42;;;;;;;;;;;3.40;99.90;;;;;;5015859;28;19928;-69
2022/05/01 03:38:08;;;;;;;;;;;3.30;99.90;;;;;;5015841;28;20243;-69
2022/05/01 03:40:35;;;;;;;;;;;3.30;99.90;;;;;;5014033;28;19921;-69
2022/05/01 03:43:02;;;;;;;;;;;3.30;99.90;;;;;;5015600;28;20303;-69
2022/05/01 03:45:30;;;;;;;;;;;3.30;99.90;;;;;;5005351;28;19922;-68
2022/05/01 03:47:56;;;;;;;;;;;3.30;99.90;;;;;;4997445;28;19922;-69
2022/05/01 03:50:22;;;;;;;;;;;3.20;99.90;;;;;;5016593;28;19925;-68
2022/05/01 03:52:47;;;;;;;;;;;3.10;99.90;;;;;;5014831;28;19922;-69
2022/05/01 03:55:13;;;;;;;;;;;3.20;99.90;;;;;;5016455;28;20015;-69
2022/05/01 03:57:39;;;;;;;;;;;3.20;99.90;;;;;;5009556;28;19922;-70
2022/05/01 04:00:05;;;;;;;;;;;3.20;99.90;;;;;;5007962;28;19922;-69
2022/05/01 04:02:38;;;;;;;;;;;3.20;99.90;;;;;;4995642;28;19945;-70
2022/05/01 04:05:04;;;;;;;;;;;3.20;99.90;;;;;;4995794;28;19921;-69
2022/05/01 04:07:32;;;;;;;;;;;3.20;99.90;;;;;;4995762;28;19921;-69
2022/05/01 04:09:58;;;;;;;;;;;3.20;99.90;;;;;;5012781;28;19972;-68
2022/05/01 04:12:23;;;;;;;;;;;3.10;99.90;;;;;;5013496;28;19974;-69
2022/05/01 04:14:50;;;;;;;;;;;3.10;99.90;;;;;;5014173;28;19971;-69
2022/05/01 04:17:15;;;;;;;;;;;3.10;99.90;;;;;;5007959;28;19921;-69
2022/05/01 04:19:41;;;;;;;;;;;3.10;99.90;;;;;;5016024;28;19928;-68
2022/05/01 04:22:07;;;;;;;;;;;3.00;99.90;;;;;;5028437;28;19929;-70
2022/05/01 04:24:32;;;;;;;;;;;3.10;99.90;;;;;;5005305;28;19922;-69
2022/05/01 04:26:58;;;;;;;;;;;3.10;99.90;;;;;;4995743;28;19926;-70
2022/05/01 04:29:43;;;;;;;;;;;3.20;99.90;;;;;;4995420;28;19928;-69
2022/05/01 04:32:09;;;;;;;;;;;3.20;99.90;;;;;;5012948;28;20012;-69
2022/05/01 04:34:35;;;;;;;;;;;3.20;99.90;;;;;;5015690;28;20407;-69
2022/05/01 04:37:01;;;;;;;;;;;3.30;99.90;;;;;;5014597;28;20066;-69
2022/05/01 04:39:27;;;;;;;;;;;3.30;99.90;;;;;;5015010;28;19921;-69
2022/05/01 04:41:53;;;;;;;;;;;3.30;99.90;;;;;;5013131;28;19921;-68
2022/05/01 04:44:19;;;;;;;;;;;4.10;99.90;;;;;;5029248;28;20095;-70
2022/05/01 04:46:49;;;;;;;;;;;3.40;99.90;;;;;;5013377;28;19996;-69
2022/05/01 04:49:21;;;;;;;;;;;3.50;99.90;;;;;;5013480;28;19944;-69
2022/05/01 04:51:47;;;;;;;;;;;4.60;99.90;;;;;;5013798;28;19928;-68
2022/05/01 04:54:12;;;;;;;;;;;3.60;99.90;;;;;;5012969;28;19921;-68
2022/05/01 04:59:22;;;;;;;;;;;3.70;99.90;;;;;;5012812;28;19928;-69
2022/05/01 05:01:48;;;;;;;;;;;3.90;99.90;;;;;;5011211;28;19921;-69
2022/05/01 05:04:13;;;;;;;;;;;3.90;99.90;;;;;;5012294;28;19921;-69
2022/05/01 05:06:39;;;;;;;;;;;4.00;99.90;;;;;;5011851;28;20000;-70
2022/05/01 05:11:48;;;;;;;;;;;4.20;99.90;;;;;;5013931;28;19936;-69
2022/05/01 05:14:14;;;;;;;;;;;4.30;99.90;;;;;;5013332;28;19940;-69
2022/05/01 05:16:41;;;;;;;;;;;4.40;99.90;;;;;;5012355;28;19921;-68
2022/05/01 05:19:06;;;;;;;;;;;4.50;99.90;;;;;;5013519;28;19921;-69
2022/05/01 05:21:32;;;;;;;;;;;4.70;99.90;;;;;;5013129;28;19921;-68
2022/05/01 05:23:57;;;;;;;;;;;4.80;99.90;;;;;;5013885;28;19921;-69
2022/05/01 05:26:23;;;;;;;;;;;6.60;99.90;;;;;;5010018;28;20284;-69
2022/05/01 05:28:48;;;;;;;;;;;5.10;99.90;;;;;;5013514;28;19921;-69
2022/05/01 05:31:14;;;;;;;;;;;5.30;99.90;;;;;;5013638;28;19921;-68
2022/05/01 05:33:39;;;;;;;;;;;5.60;99.90;;;;;;5028919;28;20334;-69
2022/05/01 05:36:05;;;;;;;;;;;5.70;99.90;;;;;;5012045;28;19927;-69
2022/05/01 05:38:33;;;;;;;;;;;5.90;99.90;;;;;;5013482;28;19922;-69
2022/05/01 05:40:58;;;;;;;;;;;6.00;99.90;;;;;;5012900;28;20363;-69
2022/05/01 05:43:24;;;;;;;;;;;8.10;99.90;;;;;;5013553;28;19921;-69
2022/05/01 05:45:50;;;;;;;;;;;6.50;99.90;;;;;;5011545;28;20267;-69
2022/05/01 05:48:17;;;;;;;;;;;6.90;99.90;;;;;;4996192;28;19961;-69
2022/05/01 05:50:42;;;;;;;;;;;7.20;99.90;;;;;;5014311;28;20375;-68
2022/05/01 05:53:08;;;;;;;;;;;7.50;99.90;;;;;;5015627;28;20371;-68
2022/05/01 05:55:33;;;;;;;;;;;7.70;99.90;;;;;;5013556;28;19921;-68
2022/05/01 05:58:02;;;;;;;;;;;7.80;99.90;;;;;;5011939;28;20000;-68
2022/05/01 06:00:28;;;;;;;;;;;7.80;99.90;;;;;;5012626;28;19921;-69
2022/05/01 06:02:53;;;;;;;;;;;7.80;99.90;;;;;;5012669;28;19932;-68
2022/05/01 06:05:19;;;;;;;;;;;7.70;99.90;;;;;;5012172;28;19974;-68
2022/05/01 06:07:44;;;;;;;;;;;7.70;99.90;;;;;;5013767;28;19922;-68
2022/05/01 06:10:10;;;;;;;;;;;7.70;99.90;;;;;;5013130;28;19967;-68
2022/05/01 06:12:42;;;;;;;;;;;7.80;99.90;;;;;;5013453;28;19929;-68
2022/05/01 06:15:08;;;;;;;;;;;7.80;99.90;;;;;;5013492;28;20020;-68
2022/05/01 06:17:34;;;;;;;;;;;7.90;99.90;;;;;;4997429;28;19965;-68
2022/05/01 06:19:59;;;;;;;;;;;8.00;99.90;;;;;;5013096;28;20275;-68
2022/05/01 06:22:25;;;;;;;;;;;8.20;99.90;;;;;;5013838;28;20391;-68
2022/05/01 06:24:50;;;;;;;;;;;8.30;99.90;;;;;;5013141;28;19928;-68
2022/05/01 06:27:16;;;;;;;;;;;8.60;99.90;;;;;;5013269;28;20294;-68
2022/05/01 06:29:41;;;;;;;;;;;9.00;99.90;;;;;;5013133;28;19921;-68
2022/05/01 06:32:07;;;;;;;;;;;9.40;99.90;;;;;;5012293;28;19921;-68
2022/05/01 06:34:35;;;;;;;;;;;9.90;99.90;;;;;;5011576;28;19979;-68
2022/05/01 06:37:00;;;;;;;;;;;10.60;99.90;;;;;;5013399;28;19922;-68
2022/05/01 06:39:26;;;;;;;;;;;10.80;99.90;;;;;;5012212;28;19929;-69
2022/05/01 06:41:52;;;;;;;;;;;11.10;99.90;;;;;;5012254;28;19975;-68
2022/05/01 06:44:17;;;;;;;;;;;11.30;99.90;;;;;;5012272;28;20001;-68
2022/05/01 06:46:43;;;;;;;;;;;11.00;99.90;;;;;;5011821;28;19951;-69
2022/05/01 06:49:08;;;;;;;;;;;10.90;99.90;;;;;;5009532;28;19968;-69
2022/05/01 06:51:34;;;;;;;;;;;11.00;99.90;;;;;;5012147;28;19921;-68
2022/05/01 06:53:59;;;;;;;;;;;10.90;99.90;;;;;;5010617;28;19922;-68
2022/05/01 06:56:25;;;;;;;;;;;10.90;99.90;;;;;;5010478;28;19922;-68
2022/05/01 06:58:50;;;;;;;;;;;10.90;99.90;;;;;;5013479;28;19921;-68
2022/05/01 07:01:16;;;;;;;;;;;10.80;99.90;;;;;;5014312;28;19921;-68
2022/05/01 07:03:42;;;;;;;;;;;11.20;99.90;;;;;;5012779;28;19922;-68
2022/05/01 07:06:07;;;;;;;;;;;11.10;99.90;;;;;;5014476;28;19913;-68
2022/05/01 07:08:33;;;;;;;;;;;11.10;99.90;;;;;;5014724;28;19922;-68
2022/05/01 07:10:58;;;;;;;;;;;11.10;99.90;;;;;;5014657;28;19921;-69
2022/05/01 07:13:24;;;;;;;;;;;11.10;99.90;;;;;;5014367;28;19960;-69
2022/05/01 07:15:50;;;;;;;;;;;11.10;99.90;;;;;;4996926;28;20600;-69
2022/05/01 07:18:15;;;;;;;;;;;11.20;99.90;;;;;;5009382;28;19922;-69
2022/05/01 07:20:41;;;;;;;;;;;11.20;99.90;;;;;;5014486;28;20294;-68
2022/05/01 07:23:06;;;;;;;;;;;11.40;99.90;;;;;;5014880;28;19925;-69
2022/05/01 07:25:32;;;;;;;;;;;11.50;99.90;;;;;;5015649;28;20363;-68
2022/05/01 07:27:58;;;;;;;;;;;11.50;99.90;;;;;;5009415;28;20326;-69
2022/05/01 07:30:23;;;;;;;;;;;11.40;99.90;;;;;;4994776;28;19957;-69
2022/05/01 07:32:49;;;;;;;;;;;11.30;99.90;;;;;;4978708;28;19968;-70
2022/05/01 07:35:14;;;;;;;;;;;11.50;99.90;;;;;;5015107;28;19928;-69
2022/05/01 07:37:40;;;;;;;;;;;11.70;99.90;;;;;;4997902;28;19921;-70
2022/05/01 07:40:06;;;;;;;;;;;11.80;99.90;;;;;;5014378;28;19967;-69
2022/05/01 07:42:31;;;;;;;;;;;11.90;99.90;;;;;;4997164;28;19929;-69
2022/05/01 07:44:57;;;;;;;;;;;11.80;99.90;;;;;;5014154;28;19928;-68
2022/05/01 07:47:23;;;;;;;;;;;11.90;99.90;;;;;;5014225;28;20321;-69
2022/05/01 07:49:48;;;;;;;;;;;11.90;99.90;;;;;;5015510;28;19928;-69
2022/05/01 07:52:16;;;;;;;;;;;11.90;99.90;;;;;;4995639;28;19921;-69
2022/05/01 07:54:41;;;;;;;;;;;11.70;99.90;;;;;;4995732;28;19929;-69
2022/05/01 07:57:07;;;;;;;;;;;11.40;99.90;;;;;;4996295;28;19921;-68
2022/05/01 07:59:33;;;;;;;;;;;11.40;99.90;;;;;;5015303;28;20267;-68
2022/05/01 08:01:58;;;;;;;;;;;11.70;99.90;;;;;;4997508;28;19921;-68
2022/05/01 08:04:30;;;;;;;;;;;12.00;99.90;;;;;;5005587;28;20332;-69
2022/05/01 08:07:00;;;;;;;;;;;12.20;99.90;;;;;;4994049;28;19921;-68
2022/05/01 08:09:26;;;;;;;;;;;12.40;99.90;;;;;;5010020;28;20391;-69
2022/05/01 08:11:52;;;;;;;;;;;12.40;99.90;;;;;;4997182;28;19934;-69
2022/05/01 08:14:18;;;;;;;;;;;12.30;99.90;;;;;;5015108;28;20008;-68
2022/05/01 08:16:44;;;;;;;;;;;12.50;99.90;;;;;;5015145;28;19921;-68
2022/05/01 08:21:53;;;;;;;;;;;12.90;99.90;;;;;;5014650;28;19925;-69
2022/05/01 08:24:19;;;;;;;;;;;12.70;99.40;;;;;;5014437;28;19935;-68
2022/05/01 08:26:47;;;;;;;;;;;12.80;99.70;;;;;;5014870;28;19921;-69
2022/05/01 08:29:15;;;;;;;;;;;12.70;98.60;;;;;;5004023;28;19921;-68
2022/05/01 08:31:42;;;;;;;;;;;12.80;99.90;;;;;;5013411;28;19926;-68
2022/05/01 08:34:08;;;;;;;;;;;13.10;99.90;;;;;;5012084;28;19921;-69
2022/05/01 08:36:34;;;;;;;;;;;13.10;99.10;;;;;;5008146;28;19961;-69
2022/05/01 08:39:00;;;;;;;;;;;13.30;99.00;;;;;;5013527;28;20454;-69
2022/05/01 08:41:28;;;;;;;;;;;13.30;99.20;;;;;;5013793;28;19929;-69
2022/05/01 08:43:56;;;;;;;;;;;13.30;98.10;;;;;;5016347;28;19925;-68
2022/05/01 08:46:24;;;;;;;;;;;13.20;98.50;;;;;;5016343;28;19925;-69
2022/05/01 08:49:06;;;;;;;;;;;13.30;98.10;;;;;;5013935;28;19943;-68
2022/05/01 08:51:33;;;;;;;;;;;13.40;98.40;;;;;;5011445;28;19940;-69
2022/05/01 08:54:00;;;;;;;;;;;13.70;99.40;;;;;;5002866;28;20371;-67
2022/05/01 08:56:26;;;;;;;;;;;14.00;97.20;;;;;;5013611;28;19922;-69
2022/05/01 08:58:52;;;;;;;;;;;13.80;97.70;;;;;;5014162;28;19928;-69
2022/05/01 09:01:18;;;;;;;;;;;14.00;97.30;;;;;;5013214;28;19922;-69
2022/05/01 09:03:44;;;;;;;;;;;14.10;96.30;;;;;;5012581;28;19979;-68
2022/05/01 09:06:10;;;;;;;;;;;14.20;96.80;;;;;;5013653;28;19964;-68
2022/05/01 09:08:39;;;;;;;;;;;14.20;96.90;;;;;;5012681;28;19921;-68
2022/05/01 09:13:50;;;;;;;;;;;14.70;96.00;;;;;;5012823;28;19976;-69
2022/05/01 09:16:15;;;;;;;;;;;15.00;96.20;;;;;;5012963;28;19921;-69
2022/05/01 09:18:42;;;;;;;;;;;15.20;96.20;;;;;;5012372;28;19921;-69
2022/05/01 09:21:08;;;;;;;;;;;15.30;94.40;;;;;;5012262;28;19921;-69
2022/05/01 09:23:37;;;;;;;;;;;15.50;95.00;;;;;;5009755;28;19921;-68
2022/05/01 09:26:03;;;;;;;;;;;15.60;94.40;;;;;;5009093;28;19956;-69
2022/05/01 09:28:29;;;;;;;;;;;15.50;94.00;;;;;;5009540;28;19928;-69
2022/05/01 09:30:55;;;;;;;;;;;15.60;93.60;;;;;;5013428;28;19921;-69
2022/05/01 09:33:21;;;;;;;;;;;15.40;93.80;;;;;;5012862;28;19921;-69
2022/05/01 09:35:47;;;;;;;;;;;15.30;93.60;;;;;;5012793;28;19929;-68
2022/05/01 09:38:17;;;;;;;;;;;15.20;93.50;;;;;;5011725;28;20381;-69
2022/05/01 09:40:43;;;;;;;;;;;15.10;93.40;;;;;;5011784;28;20367;-69
2022/05/01 09:43:09;;;;;;;;;;;14.90;94.10;;;;;;5013091;28;19927;-69
2022/05/01 09:45:35;;;;;;;;;;;14.80;94.40;;;;;;5012411;28;20537;-69
2022/05/01 09:48:00;;;;;;;;;;;14.80;94.70;;;;;;5011945;28;19921;-68
2022/05/01 09:50:43;;;;;;;;;;;14.90;94.70;;;;;;5011226;28;19965;-69
2022/05/01 09:53:09;;;;;;;;;;;14.90;93.30;;;;;;5028344;28;19921;-68
2022/05/01 09:55:35;;;;;;;;;;;14.80;93.90;;;;;;5012098;28;19936;-68
2022/05/01 09:58:01;;;;;;;;;;;15.10;93.00;;;;;;5012792;28;20016;-69
2022/05/01 10:00:35;;;;;;;;;;;15.00;93.50;;;;;;5011527;28;20296;-69
2022/05/01 10:03:18;;;;;;;;;;;15.10;93.70;;;;;;4995393;28;19921;-69
2022/05/01 10:05:44;;;;;;;;;;;15.10;92.60;;;;;;5010483;28;19975;-69
2022/05/01 10:08:11;;;;;;;;;;;15.00;92.90;;;;;;5012937;28;19925;-70
2022/05/01 10:10:37;;;;;;;;;;;15.00;92.30;;;;;;5012222;28;19934;-69
2022/05/01 10:13:05;;;;;;;;;;;14.80;92.30;;;;;;5012834;28;20267;-69
2022/05/01 10:15:31;;;;;;;;;;;14.70;93.40;;;;;;5012344;28;19988;-68
2022/05/01 10:17:56;;;;;;;;;;;14.70;93.10;;;;;;5012324;28;20461;-71
2022/05/01 10:20:23;;;;;;;;;;;14.60;92.60;;;;;;5004649;28;19925;-69
2022/05/01 10:22:49;;;;;;;;;;;14.50;92.10;;;;;;5011660;28;19925;-69
2022/05/01 10:25:18;;;;;;;;;;;14.40;92.70;;;;;;5012621;28;19999;-69
2022/05/01 10:27:54;;;;;;;;;;;14.30;92.80;;;;;;5012372;28;20339;-68
2022/05/01 10:33:10;;;;;;;;;;;14.40;92.90;;;;;;5011032;28;20439;-68
2022/05/01 10:35:45;;;;;;;;;;;14.50;93.50;;;;;;5011359;28;19929;-69
2022/05/01 10:38:27;;;;;;;;;;;14.60;92.50;;;;;;5012910;28;19921;-68
2022/05/01 10:40:53;;;;;;;;;;;14.60;93.20;;;;;;5012726;28;19929;-68
2022/05/01 10:43:25;;;;;;;;;;;14.60;92.50;;;;;;5012909;28;19928;-68
2022/05/01 10:45:53;;;;;;;;;;;14.70;93.60;;;;;;5011953;28;19921;-69
2022/05/01 10:48:28;;;;;;;;;;;14.80;93.30;;;;;;5012749;28;19921;-69
2022/05/01 10:50:54;;;;;;;;;;;14.90;93.10;;;;;;5012273;28;19921;-69
2022/05/01 10:53:20;;;;;;;;;;;15.00;92.10;;;;;;5012344;28;19944;-69
2022/05/01 10:55:48;;;;;;;;;;;14.90;92.30;;;;;;5012636;28;19921;-67
2022/05/01 10:58:21;;;;;;;;;;;14.80;92.30;;;;;;5011071;28;19925;-67
2022/05/01 11:00:47;;;;;;;;;;;14.90;92.50;;;;;;5010533;28;19944;-68
2022/05/01 11:03:22;;;;;;;;;;;14.90;92.20;;;;;;5010190;28;20453;-69
2022/05/01 11:05:52;;;;;;;;;;;15.00;90.20;;;;;;5011784;28;19929;-68
2022/05/01 11:08:18;;;;;;;;;;;14.70;90.80;;;;;;5023443;28;19995;-69
2022/05/01 11:10:44;;;;;;;;;;;14.80;90.40;;;;;;4992684;28;19928;-68
2022/05/01 11:13:14;;;;;;;;;;;14.80;91.50;;;;;;4995180;28;19925;-69
2022/05/01 11:15:52;;;;;;;;;;;15.20;92.20;;;;;;4994403;28;20397;-68
2022/05/01 11:18:26;;;;;;;;;;;15.80;93.30;;;;;;5010733;28;20004;-69
2022/05/01 11:20:52;;;;;;;;;;;16.40;90.30;;;;;;5016280;28;19984;-69
2022/05/01 11:23:31;;;;;;;;;;;16.90;89.30;;;;;;4993541;28;20050;-68
2022/05/01 11:26:13;;;;;;;;;;;17.10;87.70;;;;;;4994577;28;20060;-69
2022/05/01 11:28:59;;;;;;;;;;;16.90;84.50;;;;;;5011178;28;19926;-69
2022/05/01 11:31:36;;;;;;;;;;;16.90;85.80;;;;;;5007865;28;20021;-69
2022/05/01 11:34:29;;;;;;;;;;;16.80;82.40;;;;;;5012007;28;19922;-69
2022/05/01 11:37:01;;;;;;;;;;;16.90;85.80;;;;;;5004558;28;19921;-69
2022/05/01 11:39:45;;;;;;;;;;;17.10;84.30;;;;;;4992542;28;20032;-69
2022/05/01 11:42:26;;;;;;;;;;;17.20;79.60;;;;;;4994187;28;19929;-69
2022/05/01 11:44:56;;;;;;;;;;;17.50;80.00;;;;;;4993829;28;20394;-69
2022/05/01 11:47:22;;;;;;;;;;;17.70;81.20;;;;;;5010203;28;19927;-69
2022/05/01 11:49:48;;;;;;;;;;;18.00;79.40;;;;;;5015571;28;19932;-69
2022/05/01 11:52:16;;;;;;;;;;;17.90;77.30;;;;;;5014576;28;19948;-69
2022/05/01 11:54:53;;;;;;;;;;;17.60;77.30;;;;;;5014621;28;19975;-68
2022/05/01 12:02:56;;;;;;;;;;;17.10;76.30;;;;;;5005289;28;19968;-67
2022/05/01 12:05:21;;;;;;;;;;;17.00;78.10;;;;;;5015131;28;20052;-69
2022/05/01 12:07:52;;;;;;;;;;;17.00;79.30;;;;;;5012180;28;19997;-69
2022/05/01 12:10:17;;;;;;;;;;;16.90;75.40;;;;;;5000524;28;20336;-69
2022/05/01 12:12:43;;;;;;;;;;;16.80;77.10;;;;;;4995645;28;19964;-69
2022/05/01 12:15:09;;;;;;;;;;;16.60;78.00;;;;;;5006943;28;19976;-69
2022/05/01 12:17:38;;;;;;;;;;;16.40;77.60;;;;;;5013591;28;19921;-68
2022/05/01 12:20:05;;;;;;;;;;;16.30;78.10;;;;;;5013667;28;20016;-69
2022/05/01 12:22:37;;;;;;;;;;;16.20;81.20;;;;;;5007913;28;20306;-69
2022/05/01 12:25:04;;;;;;;;;;;16.10;81.80;;;;;;5014004;28;19933;-69
2022/05/01 12:27:35;;;;;;;;;;;16.20;83.60;;;;;;5014865;28;19929;-71
2022/05/01 12:30:02;;;;;;;;;;;16.40;83.60;;;;;;5014203;28;20013;-70
2022/05/01 12:32:28;;;;;;;;;;;16.70;81.90;;;;;;5013554;28;19921;-71
2022/05/01 12:34:56;;;;;;;;;;;16.70;78.80;;;;;;5014614;28;19929;-69
2022/05/01 12:37:24;;;;;;;;;;;16.60;81.20;;;;;;5014356;28;20005;-70
2022/05/01 12:39:59;;;;;;;;;;;16.30;82.90;;;;;;5014206;28;19928;-68
2022/05/01 12:45:18;;;;;;;;;;;15.80;83.20;;;;;;5014445;28;20317;-69
2022/05/01 12:47:48;;;;;;;;;;;15.20;82.90;;;;;;5014148;28;19968;-70
2022/05/01 12:50:19;;;;;;;;;;;15.00;85.20;;;;;;5010815;28;20339;-69
2022/05/01 12:52:55;;;;;;;;;;;15.00;85.10;;;;;;4997237;28;19967;-69
2022/05/01 12:55:22;;;;;;;;;;;15.30;85.90;;;;;;5013384;28;20004;-69
2022/05/01 12:58:17;;;;;;;;;;;15.40;84.80;;;;;;5013908;28;19928;-68
2022/05/01 13:00:42;;;;;;;;;;;15.70;85.40;;;;;;4999605;28;19922;-69
2022/05/01 13:03:24;;;;;;;;;;;16.00;82.00;;;;;;5013352;28;19987;-68
2022/05/01 13:06:09;;;;;;;;;;;15.90;82.40;;;;;;4994169;28;19921;-68
2022/05/01 13:08:39;;;;;;;;;;;15.70;84.60;;;;;;5008791;28;19929;-68
2022/05/01 13:11:21;;;;;;;;;;;15.90;82.50;;;;;;5011999;28;19975;-69
2022/05/01 13:13:48;;;;;;;;;;;15.90;82.70;;;;;;5013713;28;19968;-69
2022/05/01 13:16:15;;;;;;;;;;;16.10;81.10;;;;;;5013601;28;20426;-69
2022/05/01 13:18:41;;;;;;;;;;;15.70;82.30;;;;;;5013285;28;19979;-70
2022/05/01 13:21:06;;;;;;;;;;;15.70;82.80;;;;;;5010201;28;20390;-69
2022/05/01 13:23:32;;;;;;;;;;;15.80;84.40;;;;;;5013231;28;19928;-69
2022/05/01 13:25:58;;;;;;;;;;;16.40;84.40;;;;;;5013800;28;19921;-70
2022/05/01 13:28:23;;;;;;;;;;;17.20;80.00;;;;;;5013406;28;19944;-69
2022/05/01 13:30:49;;;;;;;;;;;17.70;78.00;;;;;;5013199;28;19921;-69
2022/05/01 13:33:14;;;;;;;;;;;18.40;75.80;;;;;;5013886;28;19921;-69
2022/05/01 13:35:40;;;;;;;;;;;18.90;74.50;;;;;;5013123;28;20363;-69
2022/05/01 13:38:05;;;;;;;;;;;19.40;75.30;;;;;;5011933;28;19922;-69
2022/05/01 13:45:59;;;;;;;;;;;20.80;68.80;;;;;;5012253;28;19992;-69
2022/05/01 13:48:25;;;;;;;;;;;19.80;69.30;;;;;;5012654;28;20371;-69
2022/05/01 13:50:51;;;;;;;;;;;18.90;70.80;;;;;;5012788;28;20318;-68
2022/05/01 13:53:17;;;;;;;;;;;18.10;72.80;;;;;;5012318;28;19961;-69
2022/05/01 13:55:42;;;;;;;;;;;17.40;74.20;;;;;;5012946;28;20358;-69
2022/05/01 13:58:08;;;;;;;;;;;16.90;76.20;;;;;;5012920;28;20233;-68
2022/05/01 14:00:35;;;;;;;;;;;16.60;77.10;;;;;;5013039;28;19921;-68
2022/05/01 14:03:01;;;;;;;;;;;16.20;77.90;;;;;;5012478;28;19947;-69
2022/05/01 14:05:27;;;;;;;;;;;15.80;80.00;;;;;;5012542;28;19929;-69
2022/05/01 14:07:53;;;;;;;;;;;15.60;80.70;;;;;;5011364;28;19921;-69
2022/05/01 14:10:18;;;;;;;;;;;15.20;83.00;;;;;;5012523;28;20046;-69
2022/05/01 14:12:46;;;;;;;;;;;14.80;83.80;;;;;;5012580;28;19927;-69
2022/05/01 14:15:12;;;;;;;;;;;14.70;85.60;;;;;;5010992;28;19997;-68
2022/05/01 14:17:37;;;;;;;;;;;14.90;87.00;;;;;;5012688;28;20371;-69
2022/05/01 14:20:03;;;;;;;;;;;14.90;85.80;;;;;;5010630;28;20254;-68
2022/05/01 14:22:31;;;;;;;;;;;14.90;85.40;;;;;;5010387;28;19925;-69
2022/05/01 14:25:00;;;;;;;;;;;15.20;86.70;;;;;;5012725;28;19921;-69
2022/05/01 14:27:26;;;;;;;;;;;15.20;84.20;;;;;;5027866;28;20008;-68
2022/05/01 14:29:51;;;;;;;;;;;14.80;85.60;;;;;;5027535;28;20389;-68
2022/05/01 14:32:22;;;;;;;;;;;14.60;86.80;;;;;;5012305;28;20440;-68
2022/05/01 14:34:50;;;;;;;;;;;14.40;88.20;;;;;;5010553;28;20012;-68
2022/05/01 14:37:37;;;;;;;;;;;14.40;87.90;;;;;;5011551;28;20342;-69
2022/05/01 14:40:04;;;;;;;;;;;14.30;88.70;;;;;;5012320;28;19922;-69
2022/05/01 14:42:33;;;;;;;;;;;14.10;90.50;;;;;;5027403;28;19943;-69
2022/05/01 14:45:03;;;;;;;;;;;14.00;90.30;;;;;;5011817;28;20001;-69
2022/05/01 14:47:30;;;;;;;;;;;13.90;91.50;;;;;;5011684;28;19917;-68
2022/05/01 14:50:01;;;;;;;;;;;14.00;91.10;;;;;;5010965;28;19921;-69
2022/05/01 14:52:28;;;;;;;;;;;14.20;90.30;;;;;;5011348;28;19922;-69
2022/05/01 14:54:54;;;;;;;;;;;14.10;90.70;;;;;;5012510;28;19928;-68
2022/05/01 14:57:22;;;;;;;;;;;14.00;90.80;;;;;;5011845;28;19922;-68
2022/05/01 15:08:10;;;;;;;;;;;14.10;90.70;;;;;;5004949;28;19922;-69
2022/05/01 15:10:43;;;;;;;;;;;14.00;91.20;;;;;;5003749;28;19925;-69
2022/05/01 15:13:13;;;;;;;;;;;14.10;91.20;;;;;;4994240;28;19929;-68
2022/05/01 15:15:38;;;;;;;;;;;14.00;90.90;;;;;;4993184;28;20390;-69
2022/05/01 15:18:08;;;;;;;;;;;13.90;91.30;;;;;;4997121;28;19969;-68